Rayne, LA (70578)

6:34 AM CDT on May 06, 2015 (GMT -0500)
Oaktree Lane | | Change Station
CLOSE
Current Station
Personal Weather Station
Location: Rayne, LA
Elevation: 28 ft
Nearby Weather Stations

Elev 28 ft 30.27 °N, 92.26 °W | Updated 2 seconds ago

Clear
Clear
63.9 °F
Feels Like 63.9 °F
N
0.0
Wind Variable Wind from NNW
Gusts 0.0 mph

Today
High -- | Low -- °F
--% Chance of Precip.
Yesterday
High -- | Low -- °F
Precip. -- in
6:21 AM 7:49 PM
Waning Gibbous, 94% visible
Pressure 30.04 in
Visibility 9.0 miles
Clouds Clear
Dew Point 63 °F
Humidity 97%
Rainfall 0.00 in
Snow Depth Not available.
UV 0 out of 12
Pollen 6.20 out of 12
Air Quality Not available.
Flu Activity Sporadic
METAR KLFT 061053Z 00000KT 9SM CLR 17/17 A3004 RMK AO2 SLP173 T01720167

More Conditions Fewer Conditions

Pressure 30.04 in
Visibility 9.0 miles
Clouds Clear
Dew Point 63 °F
Humidity 97%
Rainfall 0.00 in
Snow Depth Not available.
UV 0 out of 12
Pollen 6.20 out of 12
Air Quality Not available.
Flu Activity Sporadic
METAR KLFT 061053Z 00000KT 9SM CLR 17/17 A3004 RMK AO2 SLP173 T01720167

More Conditions Fewer Conditions

10-Day Weather Forecast

Almanac

Astronomy

May. 06, 2015 Rise Set
Actual Time
Civil Twilight
Nautical Twilight
Astronomical Twilight
Moon
Length of Visible Light
Length of Day
Tomorrow will be .
, % of the Moon is Illuminated

Today's Extremes

State Highs State Lows

Community

WunderPhotos

Upload Photos

1,818,880 photos uploaded!

WunderBlogs® & News

Nearby

Air Quality

  Air Quality AQ Index Pollutant
Not available.

Snow Depth

Station Depth Elevation

Earthquake Activity

City Distance Mag. Time & Date
Minimum magnitude displayed is 2.5.

Coastal Water Temperatures

Place Temperature

Stations

Nearby Weather Stations

Station Location Temp. Windchill Dew Point Humidity Wind Precip. Elev Updated Type